Time;durP1;ratioP1;P1;durP2;ratioP2;P2;SDS_P1;SDS_P2;PMS_P1;PMS_P2;Temp;Humidity;BMP_temperature;BMP_pressure;BME280_temperature;BME280_humidity;BME280_pressure;Samples;Min_cycle;Max_cycle;Signal;HPM_P1;HPM_P2
2021/08/08 00:01:45;;;;;;;15.33;7.30;;;;;;;15.14;77.52;99403.45;130405;1087;113784;-63
2021/08/08 00:04:14;;;;;;;16.23;7.45;;;;;;;15.13;77.63;99408.13;130451;1088;22563;-64
2021/08/08 00:06:43;;;;;;;11.18;6.13;;;;;;;15.10;77.34;99408.70;130373;1087;114186;-64
2021/08/08 00:09:13;;;;;;;20.78;6.40;;;;;;;15.09;77.30;99409.80;130479;1087;22589;-64
2021/08/08 00:11:42;;;;;;;14.30;5.85;;;;;;;15.05;77.26;99419.71;130491;1088;23317;-64
2021/08/08 00:14:12;;;;;;;13.43;7.33;;;;;;;15.02;77.20;99414.80;130352;1089;114356;-64
2021/08/08 00:16:41;;;;;;;17.73;6.58;;;;;;;14.98;77.04;99413.77;130456;1086;23607;-64
2021/08/08 00:19:10;;;;;;;13.43;6.18;;;;;;;14.95;77.05;99422.56;130414;1087;113966;-63
2021/08/08 00:21:41;;;;;;;16.40;5.95;;;;;;;14.93;77.16;99421.21;130462;1089;22550;-64
2021/08/08 00:24:10;;;;;;;10.98;6.78;;;;;;;14.88;77.21;99415.77;130368;1087;113968;-64
2021/08/08 00:26:39;;;;;;;14.00;6.20;;;;;;;14.84;77.59;99413.63;130463;1087;22596;-64
2021/08/08 00:29:08;;;;;;;13.28;6.30;;;;;;;14.82;77.52;99409.52;130495;1087;22523;-64
2021/08/08 00:31:37;;;;;;;14.98;6.58;;;;;;;14.81;77.62;99413.38;130371;1087;114104;-64
2021/08/08 00:34:06;;;;;;;14.10;6.85;;;;;;;14.79;77.75;99419.14;130429;1087;22544;-64
2021/08/08 00:36:45;;;;;;;18.63;9.93;;;;;;;14.78;77.92;99422.98;130378;1088;114186;-64
2021/08/08 00:39:17;;;;;;;24.00;15.30;;;;;;;14.76;77.67;99418.89;130455;1089;23360;-64
2021/08/08 00:41:46;;;;;;;16.20;12.08;;;;;;;14.75;77.82;99412.59;130459;1090;22539;-64
2021/08/08 00:44:15;;;;;;;16.53;12.68;;;;;;;14.75;77.98;99423.56;130347;1089;114508;-64
2021/08/08 00:46:44;;;;;;;26.78;14.10;;;;;;;14.75;78.29;99426.30;130413;1090;22551;-64
2021/08/08 00:49:14;;;;;;;17.35;13.68;;;;;;;14.76;78.18;99422.45;130336;1090;113418;-63
2021/08/08 00:51:44;;;;;;;28.18;13.33;;;;;;;14.75;78.27;99426.30;130511;1089;22566;-64
2021/08/08 00:54:13;;;;;;;22.00;12.45;;;;;;;14.72;78.04;99426.87;130303;1087;115956;-64
2021/08/08 00:56:42;;;;;;;21.25;13.20;;;;;;;14.70;77.86;99417.31;130410;1088;22552;-64
2021/08/08 00:59:11;;;;;;;25.03;13.40;;;;;;;14.68;78.21;99422.27;130442;1090;22541;-64
2021/08/08 01:01:44;;;;;;;18.18;13.23;;;;;;;14.64;78.18;99416.53;130336;1090;114641;-64
2021/08/08 01:04:16;;;;;;;24.75;13.55;;;;;;;14.61;77.59;99421.77;130488;1088;23705;-63
2021/08/08 01:07:09;;;;;;;19.63;13.95;;;;;;;14.58;77.50;99427.81;130339;1088;114766;-64
2021/08/08 01:09:40;;;;;;;18.93;13.45;;;;;;;14.52;77.75;99429.80;130499;1090;22542;-64
2021/08/08 01:12:09;;;;;;;21.00;12.48;;;;;;;14.51;77.71;99439.13;130055;1090;114722;-63
2021/08/08 01:14:42;;;;;;;23.73;12.98;;;;;;;14.50;78.01;99440.23;130446;1090;23186;-64
2021/08/08 01:17:11;;;;;;;17.73;12.28;;;;;;;14.48;78.28;99440.51;130413;1090;23481;-64
2021/08/08 01:19:53;;;;;;;21.13;11.43;;;;;;;14.49;78.25;99433.92;130354;1089;114528;-64
2021/08/08 01:22:25;;;;;;;20.40;10.93;;;;;;;14.51;78.68;99441.87;130381;1090;22904;-64
2021/08/08 01:24:54;;;;;;;16.13;9.78;;;;;;;14.54;78.88;99440.48;130071;1089;115191;-64
2021/08/08 01:27:23;;;;;;;26.53;10.00;;;;;;;14.52;78.76;99443.50;130456;1089;22575;-63
2021/08/08 01:29:53;;;;;;;18.48;9.98;;;;;;;14.51;78.46;99452.83;130480;1090;22673;-64
2021/08/08 01:32:23;;;;;;;21.70;10.18;;;;;;;14.50;78.43;99449.27;130369;1090;113830;-64
2021/08/08 01:34:51;;;;;;;20.88;9.58;;;;;;;14.48;78.45;99445.98;130436;1089;23375;-64
2021/08/08 01:37:22;;;;;;;23.65;11.58;;;;;;;14.48;78.43;99445.98;130327;1090;114175;-64
2021/08/08 01:40:07;;;;;;;18.18;9.95;;;;;;;14.46;78.44;99448.20;130446;1089;22569;-64
2021/08/08 01:42:38;;;;;;;24.78;10.58;;;;;;;14.44;78.36;99446.84;130358;1086;114380;-63
2021/08/08 01:45:07;;;;;;;18.65;10.43;;;;;;;14.41;78.14;99453.73;130441;1087;23234;-64
2021/08/08 01:47:40;;;;;;;19.60;10.68;;;;;;;14.40;78.15;99449.35;130463;1087;22589;-64
2021/08/08 01:50:17;;;;;;;16.50;10.50;;;;;;;14.38;78.25;99445.22;130040;1088;115788;-64
2021/08/08 01:52:46;;;;;;;23.43;11.38;;;;;;;14.35;78.16;99443.86;130113;1090;22565;-64
2021/08/08 01:55:21;;;;;;;24.45;9.18;;;;;;;14.32;78.11;99449.09;130076;1089;114415;-64
2021/08/08 01:57:55;;;;;;;25.45;9.48;;;;;;;14.28;78.14;99437.90;130136;1089;22533;-64
2021/08/08 02:00:25;;;;;;;17.68;8.70;;;;;;;14.23;77.69;99440.66;130002;1089;113759;-64
2021/08/08 02:02:56;;;;;;;22.08;8.75;;;;;;;14.17;77.87;99441.78;130173;1090;22665;-64
2021/08/08 02:05:31;;;;;;;18.15;8.85;;;;;;;14.14;78.25;99439.60;130178;1090;22626;-64
2021/08/08 02:08:01;;;;;;;15.83;9.33;;;;;;;14.12;78.85;99439.91;130288;1090;114466;-64
2021/08/08 02:10:40;;;;;;;19.33;9.57;;;;;;;14.13;78.80;99446.21;130412;1090;22587;-64
2021/08/08 02:13:10;;;;;;;20.40;9.73;;;;;;;14.12;78.82;99452.80;130156;1090;113844;-64
2021/08/08 02:15:39;;;;;;;18.10;8.38;;;;;;;14.10;78.74;99452.25;130135;1090;22655;-64
2021/08/08 02:18:24;;;;;;;17.88;8.35;;;;;;;14.09;78.47;99450.61;130080;1088;114822;-64
2021/08/08 02:20:53;;;;;;;24.18;7.70;;;;;;;14.07;78.53;99452.81;130174;1087;22674;-63
2021/08/08 02:23:23;;;;;;;14.95;7.63;;;;;;;14.04;78.25;99454.19;130490;1090;22537;-64
2021/08/08 02:25:52;;;;;;;12.18;6.55;;;;;;;14.03;78.40;99459.94;130335;1087;113193;-64
2021/08/08 02:28:26;;;;;;;15.98;7.90;;;;;;;14.02;78.34;99461.86;130484;1090;23142;-64
2021/08/08 02:30:56;;;;;;;15.43;7.83;;;;;;;14.03;79.02;99451.73;130356;1087;116891;-63
2021/08/08 02:33:27;;;;;;;12.23;7.08;;;;;;;14.02;78.85;99464.61;130429;1087;22618;-64
2021/08/08 02:35:58;;;;;;;12.13;7.45;;;;;;;14.02;78.64;99464.61;130507;1087;22558;-64
2021/08/08 02:38:31;;;;;;;16.25;8.03;;;;;;;14.02;78.74;99469.27;130374;1088;114038;-64
2021/08/08 02:41:02;;;;;;;19.18;7.70;;;;;;;14.02;78.84;99466.52;130395;1089;22540;-64
2021/08/08 02:43:32;;;;;;;18.83;7.93;;;;;;;13.99;78.54;99473.41;130362;1089;115071;-64
2021/08/08 02:46:02;;;;;;;17.45;8.23;;;;;;;13.95;78.81;99466.84;130460;1089;23357;-64
2021/08/08 02:48:32;;;;;;;11.90;6.50;;;;;;;14.00;78.84;99465.98;130330;1090;114636;-64
2021/08/08 02:51:02;;;;;;;15.20;7.28;;;;;;;14.02;78.80;99467.34;130435;1089;22563;-64
2021/08/08 02:53:32;;;;;;;17.53;7.65;;;;;;;14.06;79.33;99470.34;130432;1089;23136;-64
2021/08/08 02:56:01;;;;;;;20.55;7.28;;;;;;;14.09;79.17;99470.61;130300;1090;114247;-64
2021/08/08 03:01:07;;;;;;;12.13;6.53;;;;;;;14.12;79.24;99469.23;125714;1090;22840;-63
2021/08/08 03:03:38;;;;;;;10.55;6.88;;;;;;;14.13;78.91;99473.61;130075;1093;22545;-64
2021/08/08 03:06:11;;;;;;;15.80;7.13;;;;;;;14.15;79.18;99468.64;129774;1093;113984;-63
2021/08/08 03:08:52;;;;;;;13.50;7.80;;;;;;;14.18;79.26;99472.74;129960;1093;22956;-64
2021/08/08 03:11:22;;;;;;;21.40;7.65;;;;;;;14.17;79.48;99471.92;130074;1093;22625;-64
2021/08/08 03:13:51;;;;;;;21.05;7.38;;;;;;;14.19;79.46;99466.98;129779;1093;113990;-64
2021/08/08 03:16:19;;;;;;;15.70;7.08;;;;;;;14.22;79.39;99469.16;129857;1093;22561;-64
2021/08/08 03:19:09;;;;;;;14.25;7.08;;;;;;;14.25;79.39;99474.09;129931;1093;113989;-64
2021/08/08 03:21:39;;;;;;;21.48;7.73;;;;;;;14.29;79.19;99468.83;130078;1092;22633;-63
2021/08/08 03:24:08;;;;;;;14.60;9.50;;;;;;;14.34;79.51;99474.30;130068;1093;22549;-64
2021/08/08 03:26:37;;;;;;;18.08;9.90;;;;;;;14.41;80.04;99470.18;129686;1093;113923;-64
2021/08/08 03:29:08;;;;;;;25.05;10.85;;;;;;;14.51;79.82;99466.54;129825;1093;23107;-63
2021/08/08 03:31:38;;;;;;;23.25;10.85;;;;;;;14.60;80.08;99458.52;129808;1093;114492;-64
2021/08/08 03:34:07;;;;;;;19.78;10.78;;;;;;;14.66;79.81;99457.38;129813;1093;23733;-64
2021/08/08 03:36:37;;;;;;;19.98;10.55;;;;;;;14.85;80.10;99466.56;129953;1092;114429;-64
2021/08/08 03:39:06;;;;;;;18.38;10.43;;;;;;;14.98;79.93;99471.38;129918;1093;22596;-62
2021/08/08 03:41:36;;;;;;;18.50;9.65;;;;;;;15.07;79.53;99469.64;129868;1093;22631;-64
2021/08/08 03:44:05;;;;;;;20.10;10.18;;;;;;;15.15;79.59;99466.25;129664;1093;114495;-64
2021/08/08 03:46:34;;;;;;;20.52;9.73;;;;;;;15.23;79.25;99481.29;129935;1092;22523;-64
2021/08/08 03:49:03;;;;;;;19.80;8.90;;;;;;;15.30;79.35;99478.19;129703;1093;115025;-64
2021/08/08 03:51:32;;;;;;;20.15;9.23;;;;;;;15.37;79.23;99475.94;129788;1093;22566;-64
2021/08/08 03:54:01;;;;;;;14.93;8.28;;;;;;;15.46;79.46;99471.44;129768;1092;23432;-64
2021/08/08 03:56:31;;;;;;;14.23;8.73;;;;;;;15.55;79.23;99470.55;129630;1093;114448;-64
2021/08/08 03:59:01;;;;;;;18.98;8.25;;;;;;;15.62;78.94;99480.36;129777;1093;22573;-64
2021/08/08 04:01:31;;;;;;;15.53;7.73;;;;;;;15.69;78.83;99473.42;129689;1092;113733;-64
2021/08/08 04:04:00;;;;;;;18.68;8.30;;;;;;;15.77;78.59;99477.44;129779;1093;22581;-64
2021/08/08 04:06:30;;;;;;;19.68;7.85;;;;;;;15.84;78.46;99475.98;129662;1092;113870;-64
2021/08/08 04:08:59;;;;;;;12.85;7.13;;;;;;;15.93;78.36;99478.06;129831;1093;22575;-64
2021/08/08 04:11:28;;;;;;;14.95;7.93;;;;;;;16.01;78.34;99475.50;129772;1091;23341;-64
2021/08/08 04:13:58;;;;;;;18.55;8.03;;;;;;;16.09;78.15;99483.08;129674;1093;114179;-64
2021/08/08 04:16:27;;;;;;;17.55;8.83;;;;;;;16.19;77.92;99482.11;129777;1091;22538;-64
2021/08/08 04:18:57;;;;;;;10.60;7.15;;;;;;;16.28;77.64;99483.10;129711;1093;114100;-64
2021/08/08 04:21:26;;;;;;;15.00;7.95;;;;;;;16.34;77.44;99481.89;129744;1093;23466;-65
2021/08/08 04:23:55;;;;;;;13.65;7.43;;;;;;;16.39;77.26;99481.84;129766;1093;22560;-65
2021/08/08 04:26:24;;;;;;;12.63;6.65;;;;;;;16.45;77.34;99486.13;129678;1093;113615;-64
2021/08/08 04:28:54;;;;;;;10.33;6.48;;;;;;;16.52;77.22;99478.34;129779;1093;22516;-65
2021/08/08 04:31:28;;;;;;;10.43;6.88;;;;;;;16.61;77.05;99481.22;129730;1092;113913;-65
2021/08/08 04:33:57;;;;;;;11.78;6.43;;;;;;;16.69;76.92;99471.52;129760;1093;23176;-64
2021/08/08 04:36:26;;;;;;;13.33;6.38;;;;;;;16.79;76.71;99474.09;129663;1093;113876;-64
2021/08/08 04:38:55;;;;;;;12.88;5.93;;;;;;;16.89;76.60;99465.66;129784;1092;22545;-65
2021/08/08 04:41:25;;;;;;;13.95;6.60;;;;;;;16.99;76.89;99465.52;129778;1093;22550;-65
2021/08/08 04:43:55;;;;;;;11.95;5.93;;;;;;;17.09;76.58;99467.27;129716;1092;114119;-65
2021/08/08 04:46:24;;;;;;;12.38;5.78;;;;;;;17.18;76.73;99477.27;129733;1093;22588;-65
2021/08/08 04:48:53;;;;;;;12.90;7.10;;;;;;;17.28;76.57;99474.35;129645;1093;113941;-65
2021/08/08 04:51:22;;;;;;;7.68;5.90;;;;;;;17.39;76.45;99471.41;129781;1093;22580;-65
2021/08/08 04:53:52;;;;;;;13.05;5.35;;;;;;;17.54;76.29;99479.38;129804;1093;23041;-65
2021/08/08 04:56:21;;;;;;;7.88;5.60;;;;;;;17.70;75.57;99483.50;129733;1092;113717;-65
2021/08/08 04:58:50;;;;;;;13.43;5.70;;;;;;;17.88;75.19;99482.59;129741;1092;22533;-65
2021/08/08 05:01:20;;;;;;;7.53;5.40;;;;;;;18.10;74.85;99484.60;129860;1092;113987;-65
2021/08/08 05:03:49;;;;;;;9.18;4.65;;;;;;;18.43;74.35;99485.26;129863;1093;22554;-65
2021/08/08 05:06:18;;;;;;;10.18;5.03;;;;;;;18.79;72.81;99478.91;129641;1093;113819;-65
2021/08/08 05:08:48;;;;;;;7.00;4.25;;;;;;;19.16;71.76;99480.48;129757;1093;22534;-65
2021/08/08 05:11:18;;;;;;;6.28;4.18;;;;;;;19.60;70.50;99485.97;129814;1093;22621;-65
2021/08/08 05:13:51;;;;;;;4.28;3.83;;;;;;;20.09;69.35;99479.28;129675;1093;113782;-65
2021/08/08 05:16:20;;;;;;;11.38;3.90;;;;;;;20.56;67.91;99482.31;129790;1093;22530;-65
2021/08/08 05:19:06;;;;;;;5.18;3.20;;;;;;;21.05;66.25;99471.88;129659;1092;114104;-65
2021/08/08 05:21:56;;;;;;;5.08;3.15;;;;;;;21.49;64.49;99477.01;129888;1093;22691;-65
2021/08/08 05:24:24;;;;;;;8.18;3.68;;;;;;;21.86;62.75;99475.38;129726;1092;114090;-69
2021/08/08 05:26:56;;;;;;;4.05;3.23;;;;;;;22.22;61.92;99476.82;129804;1092;22601;-65
2021/08/08 05:29:25;;;;;;;7.30;3.28;;;;;;;22.60;60.66;99473.95;129771;1093;22552;-65
2021/08/08 05:31:56;;;;;;;5.95;3.40;;;;;;;22.96;59.07;99473.33;129703;1093;113987;-66
2021/08/08 05:34:24;;;;;;;7.50;3.20;;;;;;;23.24;58.37;99474.34;129777;1091;22568;-65
2021/08/08 05:36:53;;;;;;;6.88;3.73;;;;;;;23.52;56.94;99485.68;129691;1093;114219;-65
2021/08/08 05:39:22;;;;;;;5.35;3.10;;;;;;;23.79;56.09;99480.64;129216;1092;22566;-65
2021/08/08 05:41:52;;;;;;;3.15;2.80;;;;;;;24.03;54.71;99483.42;129754;1092;22577;-65
2021/08/08 05:44:20;;;;;;;3.00;2.70;;;;;;;24.22;54.75;99478.08;129691;1093;115018;-65
2021/08/08 05:46:50;;;;;;;6.80;3.80;;;;;;;24.43;54.03;99486.30;129836;1092;23011;-66
2021/08/08 05:49:20;;;;;;;3.48;2.73;;;;;;;24.60;53.33;99485.22;129664;1093;114165;-66
2021/08/08 05:51:49;;;;;;;2.93;2.33;;;;;;;24.68;52.20;99479.50;129807;1093;22585;-66
2021/08/08 05:54:19;;;;;;;4.20;3.68;;;;;;;24.72;51.76;99476.02;129637;1093;114022;-66
2021/08/08 05:56:49;;;;;;;5.18;2.80;;;;;;;24.77;51.09;99484.13;129801;1092;23291;-66
2021/08/08 05:59:18;;;;;;;4.88;2.43;;;;;;;24.68;50.38;99482.28;129903;1093;22587;-66
2021/08/08 06:01:47;;;;;;;4.43;2.40;;;;;;;24.50;50.43;99491.30;129691;1092;113715;-65
2021/08/08 06:04:17;;;;;;;6.08;2.50;;;;;;;24.32;50.35;99479.59;129770;1093;23574;-65
2021/08/08 06:06:47;;;;;;;3.63;2.08;;;;;;;24.18;50.58;99485.50;129691;1093;113742;-65
2021/08/08 06:09:16;;;;;;;3.95;2.40;;;;;;;24.02;50.61;99492.92;129778;1093;23028;-66
2021/08/08 06:11:45;;;;;;;3.43;2.43;;;;;;;23.82;50.86;99489.08;129902;1093;22572;-65
2021/08/08 06:14:14;;;;;;;5.48;2.50;;;;;;;23.65;51.39;99496.85;130016;1092;113590;-65
2021/08/08 06:16:44;;;;;;;3.85;2.58;;;;;;;23.49;52.32;99494.70;130125;1090;22647;-66
2021/08/08 06:19:14;;;;;;;2.83;2.13;;;;;;;23.38;52.36;99496.28;129931;1090;114621;-65
2021/08/08 06:22:03;;;;;;;4.40;2.78;;;;;;;23.26;52.00;99496.25;130072;1093;22640;-65
2021/08/08 06:24:32;;;;;;;3.18;2.68;;;;;;;23.17;52.29;99499.13;129677;1093;113699;-65
2021/08/08 06:27:01;;;;;;;8.00;2.90;;;;;;;23.09;52.70;99499.20;129770;1093;23375;-65
2021/08/08 06:29:30;;;;;;;3.58;2.63;;;;;;;22.99;52.63;99499.63;129751;1093;22564;-65
2021/08/08 06:32:00;;;;;;;5.90;2.60;;;;;;;22.87;53.51;99503.98;129636;1093;114116;-66
2021/08/08 06:34:28;;;;;;;4.38;2.70;;;;;;;22.75;52.85;99503.08;129732;1092;22573;-66
2021/08/08 06:36:57;;;;;;;5.13;2.85;;;;;;;22.62;52.80;99510.53;129654;1093;113932;-66
2021/08/08 06:39:27;;;;;;;6.95;3.05;;;;;;;22.50;53.12;99505.73;129777;1093;22566;-66
2021/08/08 06:41:56;;;;;;;2.53;1.93;;;;;;;22.40;53.18;99505.28;129794;1093;23371;-65
2021/08/08 06:44:31;;;;;;;4.45;2.30;;;;;;;22.31;53.19;99516.45;129672;1093;113569;-66
2021/08/08 06:47:00;;;;;;;3.43;2.45;;;;;;;22.22;53.76;99524.81;129787;1092;23839;-65
2021/08/08 06:49:29;;;;;;;2.30;2.00;;;;;;;22.18;53.71;99518.33;129646;1093;113906;-65
2021/08/08 06:51:59;;;;;;;4.73;2.50;;;;;;;22.11;53.43;99523.58;129734;1092;22650;-65
2021/08/08 06:54:28;;;;;;;4.80;2.38;;;;;;;22.04;53.77;99526.08;129691;1093;113738;-66
2021/08/08 06:56:57;;;;;;;4.58;2.25;;;;;;;21.99;53.05;99519.86;129749;1093;22555;-66
2021/08/08 06:59:30;;;;;;;2.85;2.05;;;;;;;21.94;53.73;99512.53;129770;1093;22583;-66
2021/08/08 07:01:59;;;;;;;4.33;2.00;;;;;;;21.89;53.46;99515.51;129743;1092;113828;-66
2021/08/08 07:04:28;;;;;;;2.68;1.88;;;;;;;21.87;54.23;99524.16;130108;1090;22547;-66
2021/08/08 07:07:00;;;;;;;3.95;1.95;;;;;;;21.87;53.99;99521.38;129971;1090;114165;-65
2021/08/08 07:09:30;;;;;;;3.48;1.93;;;;;;;21.88;54.22;99520.23;129917;1093;23399;-66
2021/08/08 07:12:00;;;;;;;4.50;2.23;;;;;;;21.90;53.67;99524.64;129777;1093;22625;-65
2021/08/08 07:14:41;;;;;;;3.68;2.10;;;;;;;21.88;52.99;99523.02;129701;1093;114036;-66
2021/08/08 07:17:10;;;;;;;6.40;3.53;;;;;;;21.88;54.05;99520.23;129729;1092;22585;-65
2021/08/08 07:19:39;;;;;;;5.03;2.50;;;;;;;21.90;54.39;99528.23;129711;1093;113625;-65
2021/08/08 07:22:08;;;;;;;7.68;2.33;;;;;;;21.90;53.97;99517.14;129925;1093;23454;-65
2021/08/08 07:24:38;;;;;;;3.00;2.20;;;;;;;21.97;53.71;99528.52;129680;1093;113941;-66
2021/08/08 07:27:08;;;;;;;5.68;2.30;;;;;;;22.00;53.53;99525.11;129792;1093;23101;-66
2021/08/08 07:29:37;;;;;;;2.40;1.68;;;;;;;22.01;52.30;99532.29;129791;1093;22573;-64
2021/08/08 07:32:07;;;;;;;4.60;2.30;;;;;;;22.03;52.67;99537.51;129685;1092;113798;-64
2021/08/08 07:34:37;;;;;;;6.73;4.33;;;;;;;22.04;53.54;99536.36;129729;1093;23253;-64
2021/08/08 07:37:06;;;;;;;5.45;3.35;;;;;;;22.07;53.27;99535.70;129689;1093;114059;-64
2021/08/08 07:39:36;;;;;;;4.40;2.55;;;;;;;22.12;53.10;99549.37;129766;1093;22568;-64
2021/08/08 07:42:05;;;;;;;2.98;2.10;;;;;;;22.14;52.43;99541.53;130019;1092;22649;-64
2021/08/08 07:44:34;;;;;;;12.63;5.98;;;;;;;22.13;52.54;99542.67;129921;1090;113616;-66
2021/08/08 07:47:04;;;;;;;3.18;2.23;;;;;;;22.14;53.02;99545.12;130009;1090;22543;-64
2021/08/08 07:49:33;;;;;;;7.35;2.40;;;;;;;22.20;53.13;99537.42;129953;1091;114040;-65
2021/08/08 07:52:02;;;;;;;4.13;2.05;;;;;;;22.27;52.77;99546.02;130093;1090;23747;-65
2021/08/08 07:54:32;;;;;;;2.18;1.73;;;;;;;22.34;52.14;99537.19;129947;1093;114340;-65
2021/08/08 07:57:01;;;;;;;2.33;2.03;;;;;;;22.38;51.93;99547.27;130099;1091;22571;-65
2021/08/08 07:59:31;;;;;;;4.73;1.98;;;;;;;22.43;52.41;99544.30;130112;1090;23122;-65
2021/08/08 08:02:00;;;;;;;3.53;1.90;;;;;;;22.50;52.61;99543.78;129956;1090;113835;-67
2021/08/08 08:04:29;;;;;;;5.03;2.23;;;;;;;22.55;52.16;99546.34;130043;1090;22557;-67
2021/08/08 08:06:58;;;;;;;3.45;2.28;;;;;;;22.62;52.73;99540.27;129996;1090;114134;-66
2021/08/08 08:09:27;;;;;;;3.40;2.20;;;;;;;22.66;52.20;99544.80;130173;1089;23163;-67
2021/08/08 08:11:56;;;;;;;3.65;2.38;;;;;;;22.69;52.99;99546.90;130134;1090;22531;-66
2021/08/08 08:14:25;;;;;;;9.08;3.35;;;;;;;22.74;51.16;99541.16;130017;1090;113814;-67
2021/08/08 08:16:54;;;;;;;2.70;2.30;;;;;;;22.77;50.84;99539.70;130077;1090;23749;-66
2021/08/08 08:19:24;;;;;;;2.03;1.83;;;;;;;22.78;50.28;99539.37;129964;1090;114458;-66
2021/08/08 08:21:53;;;;;;;2.58;2.08;;;;;;;22.76;49.94;99533.33;130106;1089;22547;-66
2021/08/08 08:24:22;;;;;;;2.78;2.08;;;;;;;22.79;50.32;99540.18;129988;1090;114285;-66
2021/08/08 08:26:52;;;;;;;4.13;2.70;;;;;;;22.78;51.16;99538.55;130085;1090;23495;-67
2021/08/08 08:29:21;;;;;;;5.00;2.90;;;;;;;22.85;51.57;99538.81;130094;1089;22555;-67
2021/08/08 08:31:51;;;;;;;5.25;2.40;;;;;;;22.91;51.18;99535.50;129993;1089;113887;-66
2021/08/08 08:34:20;;;;;;;3.38;2.65;;;;;;;22.96;51.15;99541.98;130081;1090;22556;-66
2021/08/08 08:36:59;;;;;;;5.78;2.60;;;;;;;23.01;51.92;99533.45;130077;1089;114055;-67
2021/08/08 08:39:29;;;;;;;6.08;2.38;;;;;;;23.06;50.19;99534.06;130076;1089;22641;-66
2021/08/08 08:42:00;;;;;;;4.48;2.25;;;;;;;23.08;50.01;99526.20;130075;1090;22516;-67
2021/08/08 08:44:29;;;;;;;2.13;1.90;;;;;;;23.10;47.94;99521.09;130003;1090;113894;-67
2021/08/08 08:46:58;;;;;;;3.10;1.50;;;;;;;23.13;46.41;99519.60;130084;1090;22622;-67
2021/08/08 08:49:28;;;;;;;3.05;1.75;;;;;;;23.13;46.35;99511.27;130012;1089;113755;-67
2021/08/08 08:52:02;;;;;;;2.50;1.65;;;;;;;23.13;46.95;99514.05;130167;1090;23199;-67
2021/08/08 08:54:32;;;;;;;2.55;2.05;;;;;;;23.14;47.84;99512.89;129966;1090;113846;-67
2021/08/08 08:57:02;;;;;;;5.35;2.38;;;;;;;23.15;47.10;99512.55;130140;1090;22574;-66
2021/08/08 08:59:30;;;;;;;4.53;1.93;;;;;;;23.16;47.97;99516.14;130078;1089;23297;-67
2021/08/08 09:02:01;;;;;;;4.38;2.20;;;;;;;23.18;47.54;99508.28;129957;1090;113770;-66
2021/08/08 09:04:31;;;;;;;2.28;1.70;;;;;;;23.18;47.12;99506.31;130089;1090;22543;-66
2021/08/08 09:07:03;;;;;;;1.88;1.78;;;;;;;23.20;46.50;99504.01;130006;1090;114243;-66
2021/08/08 09:09:33;;;;;;;4.33;2.18;;;;;;;23.24;47.05;99501.34;130089;1090;22564;-66
2021/08/08 09:12:03;;;;;;;2.35;1.93;;;;;;;23.28;46.25;99500.31;130139;1090;22579;-65
2021/08/08 09:14:34;;;;;;;10.80;2.35;;;;;;;23.31;45.33;99501.61;130000;1090;114159;-65
2021/08/08 09:17:04;;;;;;;2.98;2.05;;;;;;;23.33;45.27;99507.64;130102;1090;22552;-66
2021/08/08 09:19:37;;;;;;;4.73;2.25;;;;;;;23.35;45.89;99496.98;129967;1089;115688;-65
2021/08/08 09:22:20;;;;;;;2.93;2.00;;;;;;;23.40;46.24;99495.94;130137;1090;22518;-66
2021/08/08 09:24:48;;;;;;;2.80;2.20;;;;;;;23.44;46.09;99499.66;129976;1089;114115;-66
2021/08/08 09:27:19;;;;;;;2.10;1.90;;;;;;;23.48;46.10;99498.64;130057;1090;22504;-67
2021/08/08 09:29:50;;;;;;;4.83;2.50;;;;;;;23.50;45.42;99499.11;130181;1089;22480;-67
2021/08/08 09:32:29;;;;;;;2.98;1.98;;;;;;;23.52;46.17;99482.90;129979;1090;113799;-67
2021/08/08 09:35:09;;;;;;;3.68;2.23;;;;;;;23.58;46.90;99491.84;130092;1090;22533;-66
2021/08/08 09:37:38;;;;;;;2.03;1.80;;;;;;;23.64;46.68;99500.80;130076;1089;114027;-67
2021/08/08 09:40:14;;;;;;;3.40;2.08;;;;;;;23.68;47.11;99504.48;130090;1090;22604;-66
2021/08/08 09:42:45;;;;;;;2.58;2.38;;;;;;;23.72;44.87;99497.89;129972;1090;114341;-66
2021/08/08 09:45:16;;;;;;;3.68;1.90;;;;;;;23.74;44.19;99495.58;130114;1090;22534;-67
2021/08/08 09:47:50;;;;;;;7.48;2.15;;;;;;;23.75;44.19;99488.86;130155;1089;23568;-67
2021/08/08 09:50:23;;;;;;;3.40;2.08;;;;;;;23.79;44.38;99488.98;129955;1090;113796;-66
2021/08/08 09:52:54;;;;;;;5.73;2.40;;;;;;;23.82;45.22;99486.30;130121;1090;22503;-66
2021/08/08 09:55:35;;;;;;;4.85;2.65;;;;;;;23.88;44.36;99490.49;130024;1090;113661;-66
2021/08/08 09:58:21;;;;;;;6.08;2.55;;;;;;;23.94;44.38;99485.52;130130;1090;22625;-66
2021/08/08 10:00:57;;;;;;;4.45;2.60;;;;;;;23.99;45.35;99488.05;129976;1090;115310;-66
2021/08/08 10:03:26;;;;;;;3.55;2.50;;;;;;;24.05;45.32;99485.86;130144;1090;23304;-66
2021/08/08 10:05:55;;;;;;;2.75;2.00;;;;;;;24.10;44.26;99493.95;130132;1090;22678;-66
2021/08/08 10:08:25;;;;;;;5.75;2.43;;;;;;;24.11;44.12;99493.61;130001;1090;114010;-66
2021/08/08 10:11:08;;;;;;;3.85;2.28;;;;;;;24.12;44.18;99497.20;130181;1090;23561;-66
2021/08/08 10:13:40;;;;;;;2.63;1.98;;;;;;;24.14;44.77;99495.70;129938;1090;114238;-66
2021/08/08 10:16:13;;;;;;;5.25;2.35;;;;;;;24.18;43.50;99493.04;130119;1090;22552;-66
2021/08/08 10:18:43;;;;;;;3.10;2.30;;;;;;;24.15;44.72;99490.95;130110;1088;114676;-66
2021/08/08 10:21:12;;;;;;;3.20;2.90;;;;;;;24.23;44.71;99502.01;130165;1090;22802;-66
2021/08/08 10:23:41;;;;;;;4.03;2.38;;;;;;;24.27;43.73;99500.13;130145;1089;22966;-66
2021/08/08 10:26:11;;;;;;;3.08;2.50;;;;;;;24.29;43.96;99506.16;130033;1089;115090;-66
2021/08/08 10:28:40;;;;;;;4.98;2.85;;;;;;;24.31;44.46;99505.82;130128;1089;22636;-66
2021/08/08 10:31:09;;;;;;;3.48;2.13;;;;;;;24.34;44.44;99505.13;129995;1089;114358;-66
2021/08/08 10:33:45;;;;;;;2.90;2.33;;;;;;;24.33;42.45;99503.50;130153;1090;22544;-66
2021/08/08 10:36:19;;;;;;;4.45;2.55;;;;;;;24.42;42.45;99514.50;130136;1090;22665;-66
2021/08/08 10:38:49;;;;;;;6.25;2.78;;;;;;;24.43;43.53;99503.02;130027;1089;113895;-66
2021/08/08 10:41:18;;;;;;;2.73;2.30;;;;;;;24.45;43.92;99506.27;130154;1090;22530;-67
2021/08/08 10:43:48;;;;;;;3.83;2.13;;;;;;;24.46;43.68;99504.29;130028;1090;113742;-66
2021/08/08 10:46:17;;;;;;;3.08;2.43;;;;;;;24.46;42.99;99505.10;130111;1090;23006;-66
2021/08/08 10:48:47;;;;;;;2.70;2.18;;;;;;;24.50;40.54;99505.22;130091;1090;113837;-66
2021/08/08 10:51:21;;;;;;;2.20;2.00;;;;;;;24.53;39.19;99499.73;130074;1089;22570;-66
2021/08/08 10:54:04;;;;;;;4.03;2.40;;;;;;;24.58;41.20;99495.91;130152;1090;22522;-66
2021/08/08 10:56:46;;;;;;;2.40;2.00;;;;;;;24.62;40.07;99500.43;130032;1089;113801;-67
2021/08/08 10:59:22;;;;;;;3.30;2.18;;;;;;;24.67;40.36;99497.38;130192;1089;22538;-66
2021/08/08 11:02:08;;;;;;;3.58;2.13;;;;;;;24.71;39.17;99491.11;130016;1090;113762;-67
2021/08/08 11:04:37;;;;;;;3.10;2.00;;;;;;;24.73;38.03;99500.74;130261;1089;23358;-66
2021/08/08 11:07:07;;;;;;;2.45;1.98;;;;;;;24.77;37.12;99501.66;130068;1090;113889;-66
2021/08/08 11:09:37;;;;;;;3.05;2.10;;;;;;;24.82;37.38;99493.04;130072;1090;22570;-66
2021/08/08 11:12:08;;;;;;;3.10;2.05;;;;;;;24.87;36.56;99500.34;130124;1090;23005;-66
2021/08/08 11:14:47;;;;;;;2.38;1.90;;;;;;;24.89;36.24;99495.23;130110;1090;114301;-66
2021/08/08 11:17:17;;;;;;;3.98;1.95;;;;;;;24.93;36.56;99505.36;130109;1090;22616;-66
2021/08/08 11:19:46;;;;;;;2.83;2.00;;;;;;;24.99;35.79;99503.12;130031;1090;114292;-66
2021/08/08 11:22:17;;;;;;;2.08;1.70;;;;;;;25.07;35.77;99493.00;130165;1090;22531;-66
2021/08/08 11:24:56;;;;;;;2.08;1.85;;;;;;;25.11;35.79;99500.27;130004;1089;113973;-66
2021/08/08 11:27:44;;;;;;;3.28;1.73;;;;;;;25.14;35.62;99487.61;130128;1090;23338;-66
2021/08/08 11:30:16;;;;;;;3.45;2.00;;;;;;;25.16;34.21;99485.27;130117;1090;22532;-66
2021/08/08 11:32:55;;;;;;;2.60;1.70;;;;;;;25.16;34.86;99493.64;130051;1090;113377;-66
2021/08/08 11:35:29;;;;;;;3.68;2.50;;;;;;;25.18;35.48;99491.31;130138;1090;22677;-66
2021/08/08 11:38:01;;;;;;;2.20;2.00;;;;;;;25.25;35.73;99499.86;130033;1089;113591;-66